createdAt,value
2019-05-16T00:02:59.623Z,44.4
2019-05-16T00:07:59.796Z,44.4
2019-05-16T00:12:59.969Z,44.3
2019-05-16T00:18:00.158Z,44.2
2019-05-16T00:23:00.344Z,44.2
2019-05-16T00:28:00.502Z,44.1
2019-05-16T00:33:00.641Z,44.1
2019-05-16T00:38:00.801Z,44
2019-05-16T00:43:00.960Z,43.9
2019-05-16T00:48:01.151Z,43.9
2019-05-16T00:53:01.304Z,43.8
2019-05-16T00:58:01.470Z,43.7
2019-05-16T01:03:01.613Z,43.7
2019-05-16T01:08:01.774Z,43.6
2019-05-16T01:13:02.183Z,43.6
2019-05-16T01:18:02.330Z,43.5
2019-05-16T01:23:02.494Z,43.4
2019-05-16T01:28:02.629Z,43.4
2019-05-16T01:33:02.789Z,43.4
2019-05-16T01:38:02.930Z,43.3
2019-05-16T01:43:04.757Z,43.3
2019-05-16T01:48:08.192Z,43.2
2019-05-16T01:53:10.176Z,43.1
2019-05-16T01:58:11.995Z,43.1
2019-05-16T02:03:13.802Z,43
2019-05-16T02:08:17.989Z,42.9
2019-05-16T02:13:18.416Z,42.9
2019-05-16T02:18:18.688Z,42.8
2019-05-16T02:23:19.025Z,42.7
2019-05-16T02:28:20.815Z,42.7
2019-05-16T02:33:24.891Z,42.7
2019-05-16T02:38:26.708Z,42.6
2019-05-16T02:43:26.898Z,42.6
2019-05-16T02:48:31.580Z,42.5
2019-05-16T02:53:36.718Z,42.4
2019-05-16T03:03:45.144Z,42.4
2019-05-16T03:08:46.980Z,42.3
2019-05-16T03:13:51.081Z,42.2
2019-05-16T03:18:53.172Z,42.2
2019-05-16T03:23:54.963Z,42.1
2019-05-16T03:28:56.745Z,42.1
2019-05-16T03:34:05.464Z,42.1
2019-05-16T03:39:10.657Z,42
2019-05-16T03:44:12.531Z,41.9
2019-05-16T03:49:14.292Z,41.9
2019-05-16T03:54:16.056Z,41.9
2019-05-16T03:59:17.812Z,41.7
2019-05-16T04:04:20.811Z,41.7
2019-05-16T04:09:22.834Z,41.7
2019-05-16T04:14:24.574Z,41.6
2019-05-16T04:19:26.311Z,41.6
2019-05-16T04:24:31.407Z,41.6
2019-05-16T04:29:33.331Z,41.5
2019-05-16T04:34:35.074Z,41.4
2019-05-16T04:39:36.852Z,41.4
2019-05-16T04:44:41.592Z,41.4
2019-05-16T04:49:43.552Z,41.2
2019-05-16T04:54:45.283Z,41.2
2019-05-16T04:59:47.002Z,41.1
2019-05-16T05:04:50.895Z,41.1
2019-05-16T05:09:51.864Z,41
2019-05-16T05:14:53.824Z,41
2019-05-16T05:19:55.571Z,40.9
2019-05-16T05:24:57.327Z,40.9
2019-05-16T05:30:00.973Z,40.9
2019-05-16T05:35:02.035Z,40.8
2019-05-16T05:40:03.860Z,40.8
2019-05-16T05:45:05.614Z,40.8
2019-05-16T05:50:07.379Z,40.7
2019-05-16T05:55:10.505Z,40.6
2019-05-16T06:00:12.720Z,40.6
2019-05-16T06:05:14.512Z,40.6
2019-05-16T06:10:16.269Z,40.5
2019-05-16T06:15:20.075Z,40.4
2019-05-16T06:20:22.123Z,40.4
2019-05-16T06:25:23.893Z,40.4
2019-05-16T06:30:25.648Z,40.3
2019-05-16T06:35:29.720Z,40.2
2019-05-16T06:40:31.686Z,40.2
2019-05-16T06:45:33.640Z,40.2
2019-05-16T06:50:34.475Z,40.2
2019-05-16T06:55:36.202Z,40.1
2019-05-16T07:00:40.469Z,40.1
2019-05-16T07:05:42.397Z,40
2019-05-16T07:10:44.156Z,40
2019-05-16T07:15:45.903Z,39.9
2019-05-16T07:20:47.625Z,39.9
2019-05-16T07:25:50.442Z,39.9
2019-05-16T07:30:52.488Z,39.8
2019-05-16T07:35:54.219Z,39.7
2019-05-16T07:40:55.947Z,39.7
2019-05-16T07:46:00.200Z,39.7
2019-05-16T07:51:02.138Z,39.6
2019-05-16T07:56:03.888Z,39.6
2019-05-16T08:01:08.761Z,39.6
2019-05-16T08:06:13.579Z,39.5
2019-05-16T08:11:15.390Z,39.5
2019-05-16T08:16:17.146Z,39.4
2019-05-16T08:21:20.163Z,39.4
2019-05-16T08:26:22.314Z,39.4
2019-05-16T08:31:24.126Z,39.3
2019-05-16T08:36:25.866Z,39.3
2019-05-16T08:41:27.586Z,39.2
2019-05-16T08:46:32.164Z,39.2
2019-05-16T08:51:34.168Z,39.2
2019-05-16T08:56:35.884Z,39.1
2019-05-16T09:01:46.736Z,39.1
2019-05-16T09:06:52.534Z,39.1
2019-05-16T09:11:56.906Z,39
2019-05-16T09:16:59.126Z,39
2019-05-16T09:22:00.851Z,38.9
2019-05-16T09:27:02.606Z,38.9
2019-05-16T09:32:12.327Z,38.9
2019-05-16T09:37:17.971Z,38.8
2019-05-16T09:42:27.639Z,38.7
2019-05-16T09:47:29.641Z,38.7
2019-05-16T09:52:31.575Z,38.6
2019-05-16T09:57:33.267Z,38.6
2019-05-16T10:02:36.673Z,38.6
2019-05-16T10:07:38.712Z,38.6
2019-05-16T10:12:40.787Z,38.5
2019-05-16T10:17:42.456Z,38.4
2019-05-16T10:22:46.775Z,38.4
2019-05-16T10:27:51.947Z,38.4
2019-05-16T10:38:00.219Z,38.3
2019-05-16T10:43:02.095Z,38.3
2019-05-16T10:48:03.759Z,38.2
2019-05-16T10:53:23.357Z,38.2
2019-05-16T10:58:36.843Z,38.2
2019-05-16T11:03:39.809Z,38.1
2019-05-16T11:08:41.613Z,38.1
2019-05-16T11:13:43.288Z,38.1
2019-05-16T11:18:44.944Z,38.1
2019-05-16T11:23:47.079Z,38
2019-05-16T11:28:49.360Z,38
2019-05-16T11:33:51.238Z,37.9
2019-05-16T11:38:56.978Z,37.9
2019-05-16T11:44:00.302Z,37.9
2019-05-16T11:49:01.936Z,37.9
2019-05-16T11:54:03.565Z,37.8
2019-05-16T11:59:07.603Z,37.7
2019-05-16T12:04:09.459Z,37.7
2019-05-16T12:09:11.098Z,37.7
2019-05-16T12:14:12.733Z,37.7
2019-05-16T12:19:14.580Z,37.7
2019-05-16T12:24:31.470Z,37.6
2019-05-16T12:29:37.251Z,37.6
2019-05-16T12:34:39.048Z,37.6
2019-05-16T12:39:40.678Z,37.5
2019-05-16T12:44:42.301Z,37.5
2019-05-16T12:49:43.918Z,37.5
2019-05-16T12:54:47.489Z,37.4
2019-05-16T12:59:52.431Z,37.4
2019-05-16T13:04:54.225Z,37.4
2019-05-16T13:09:55.842Z,37.4
2019-05-16T13:14:56.522Z,37.3
2019-05-16T13:19:58.140Z,37.2
2019-05-16T13:24:59.765Z,37.2
2019-05-16T13:30:01.383Z,37.2
2019-05-16T13:35:02.986Z,37.2
2019-05-16T13:40:04.605Z,37.2
2019-05-16T13:45:06.893Z,37.1
2019-05-16T13:50:11.961Z,37.1
2019-05-16T13:55:13.776Z,37.1
2019-05-16T14:00:17.284Z,37.1
2019-05-16T14:05:19.168Z,37
2019-05-16T14:10:20.808Z,37
2019-05-16T14:15:22.471Z,36.9
2019-05-16T14:20:24.128Z,36.9
2019-05-16T14:25:25.777Z,36.9
2019-05-16T14:30:28.477Z,36.9
2019-05-16T14:35:29.436Z,36.9
2019-05-16T14:40:31.099Z,36.8
2019-05-16T14:45:32.726Z,36.8
2019-05-16T14:50:37.260Z,36.7
2019-05-16T14:55:39.111Z,36.7
2019-05-16T15:00:40.765Z,36.7
2019-05-16T15:05:42.797Z,36.7
2019-05-16T15:10:46.733Z,36.6
2019-05-16T15:15:48.566Z,36.6
2019-05-16T15:20:50.196Z,36.6
2019-05-16T15:25:51.378Z,36.6
2019-05-16T15:30:53.013Z,36.5
2019-05-16T15:35:57.504Z,36.5
2019-05-16T15:41:00.426Z,36.5
2019-05-16T15:46:02.250Z,36.4
2019-05-16T15:51:02.884Z,37.6
2019-05-16T15:56:06.999Z,39.3
2019-05-16T16:06:17.842Z,41.2
2019-05-16T16:11:19.696Z,41.9
2019-05-16T16:16:21.494Z,42.7
2019-05-16T16:21:21.641Z,43.3
2019-05-16T16:26:21.818Z,43.9
2019-05-16T16:31:22.007Z,44.4
2019-05-16T16:36:22.210Z,44.4
2019-05-16T16:41:23.159Z,44.9
2019-05-16T16:46:23.592Z,45.2
2019-05-16T16:51:26.719Z,45.6
2019-05-16T16:56:27.504Z,45.9
2019-05-16T17:01:27.814Z,46.3
2019-05-16T17:06:28.085Z,46.6
2019-05-16T17:11:29.593Z,46.9
2019-05-16T17:16:30.079Z,47.1
2019-05-16T17:21:31.052Z,47.2
2019-05-16T17:26:31.322Z,47.4
2019-05-16T17:31:31.580Z,47.5
2019-05-16T17:36:31.823Z,47.6
2019-05-16T17:41:32.083Z,47.7
2019-05-16T17:46:36.780Z,47.7
2019-05-16T17:51:37.787Z,47.7
2019-05-16T17:56:38.022Z,47.7
2019-05-16T18:01:38.299Z,47.8
2019-05-16T18:06:38.548Z,47.8
2019-05-16T18:11:38.806Z,47.7
2019-05-16T18:16:52.330Z,47.8
2019-05-16T18:21:54.037Z,47.9
2019-05-16T18:26:54.349Z,47.9
2019-05-16T18:31:54.614Z,47.9
2019-05-16T18:36:57.068Z,47.8
2019-05-16T18:41:57.476Z,47.8
2019-05-16T18:47:06.800Z,47.9
2019-05-16T18:52:07.951Z,47.9
2019-05-16T18:57:08.271Z,47.9
2019-05-16T19:02:10.356Z,47.9
2019-05-16T19:07:10.850Z,47.9
2019-05-16T19:12:11.142Z,47.8
2019-05-16T19:17:20.917Z,47.7
2019-05-16T19:22:26.321Z,47.9
2019-05-16T19:27:26.775Z,47.9
2019-05-16T19:32:27.049Z,47.9
2019-05-16T19:37:27.329Z,47.8
2019-05-16T19:42:29.760Z,47.8
2019-05-16T19:47:36.863Z,47.7
2019-05-16T19:52:37.384Z,47.7
2019-05-16T19:57:37.691Z,48.1
2019-05-16T20:02:39.221Z,48.3
2019-05-16T20:07:39.550Z,48.3
2019-05-16T20:12:39.944Z,48.3
2019-05-16T20:17:51.855Z,47.9
2019-05-16T20:22:56.610Z,47.7
2019-05-16T20:27:56.989Z,47.6
2019-05-16T20:32:57.275Z,47.5
2019-05-16T20:37:57.524Z,47.4
2019-05-16T20:42:59.435Z,47.4
2019-05-16T20:48:10.743Z,47.3
2019-05-16T20:53:12.635Z,47.2
2019-05-16T20:58:16.286Z,47.2
2019-05-16T21:03:16.637Z,47.1
2019-05-16T21:08:17.352Z,47
2019-05-16T21:13:17.640Z,46.9
2019-05-16T21:18:18.668Z,46.9
2019-05-16T21:23:19.434Z,46.8
2019-05-16T21:28:20.050Z,46.7
2019-05-16T21:33:20.355Z,46.7
2019-05-16T21:38:20.651Z,46.6
2019-05-16T21:43:20.915Z,46.5
2019-05-16T21:48:21.206Z,46.4
2019-05-16T21:53:21.436Z,46.4
2019-05-16T21:58:22.433Z,46.3
2019-05-16T22:03:22.694Z,46.2
2019-05-16T22:08:23.204Z,46.1
2019-05-16T22:13:23.435Z,46.1
2019-05-16T22:18:23.676Z,46
2019-05-16T22:23:23.928Z,45.9
2019-05-16T22:28:26.536Z,45.9
2019-05-16T22:33:27.221Z,45.8
2019-05-16T22:38:27.433Z,45.7
2019-05-16T22:43:27.660Z,45.6
2019-05-16T22:48:28.142Z,45.6
2019-05-16T22:53:29.071Z,45.5
2019-05-16T22:58:29.297Z,45.4
2019-05-16T23:03:29.493Z,45.3
2019-05-16T23:08:29.711Z,45.2
2019-05-16T23:13:29.929Z,45.2
2019-05-16T23:18:31.107Z,45.1
2019-05-16T23:23:32.018Z,45.1
2019-05-16T23:28:32.254Z,44.9
2019-05-16T23:33:32.439Z,44.9
2019-05-16T23:38:32.633Z,44.8
2019-05-16T23:43:32.826Z,44.7
2019-05-16T23:48:32.991Z,44.7
2019-05-16T23:53:33.198Z,44.6
2019-05-16T23:58:33.377Z,44.5
